sensor_id;sensor_type;location;lat;lon;timestamp;P1;durP1;ratioP1;P2;durP2;ratioP2
7001;SDS011;3541;53.230;10.518;2023-09-07T00:00:06;4.53;;;3.33;;
7001;SDS011;3541;53.230;10.518;2023-09-07T00:02:35;5.97;;;3.08;;
7001;SDS011;3541;53.230;10.518;2023-09-07T00:05:03;4.55;;;3.42;;
7001;SDS011;3541;53.230;10.518;2023-09-07T00:07:31;3.88;;;3.53;;
7001;SDS011;3541;53.230;10.518;2023-09-07T00:09:57;5.57;;;3.35;;
7001;SDS011;3541;53.230;10.518;2023-09-07T00:12:24;4.55;;;3.35;;
7001;SDS011;3541;53.230;10.518;2023-09-07T00:14:51;5.47;;;3.53;;
7001;SDS011;3541;53.230;10.518;2023-09-07T00:17:19;4.43;;;3.10;;
7001;SDS011;3541;53.230;10.518;2023-09-07T00:19:45;4.60;;;3.33;;
7001;SDS011;3541;53.230;10.518;2023-09-07T00:22:15;3.95;;;3.40;;
7001;SDS011;3541;53.230;10.518;2023-09-07T00:24:42;4.07;;;3.28;;
7001;SDS011;3541;53.230;10.518;2023-09-07T00:27:08;3.58;;;3.13;;
7001;SDS011;3541;53.230;10.518;2023-09-07T00:29:36;3.72;;;3.42;;
7001;SDS011;3541;53.230;10.518;2023-09-07T00:32:03;4.63;;;3.75;;
7001;SDS011;3541;53.230;10.518;2023-09-07T00:34:30;6.32;;;3.78;;
7001;SDS011;3541;53.230;10.518;2023-09-07T00:36:57;5.60;;;3.70;;
7001;SDS011;3541;53.230;10.518;2023-09-07T00:39:25;4.30;;;3.90;;
7001;SDS011;3541;53.230;10.518;2023-09-07T00:41:52;3.90;;;3.50;;
7001;SDS011;3541;53.230;10.518;2023-09-07T00:44:18;3.95;;;3.65;;
7001;SDS011;3541;53.230;10.518;2023-09-07T00:46:45;4.68;;;3.75;;
7001;SDS011;3541;53.230;10.518;2023-09-07T00:49:12;5.38;;;3.67;;
7001;SDS011;3541;53.230;10.518;2023-09-07T00:51:39;4.80;;;3.92;;
7001;SDS011;3541;53.230;10.518;2023-09-07T00:54:06;3.78;;;3.42;;
7001;SDS011;3541;53.230;10.518;2023-09-07T00:56:35;4.20;;;3.70;;
7001;SDS011;3541;53.230;10.518;2023-09-07T00:59:02;6.05;;;4.10;;
7001;SDS011;3541;53.230;10.518;2023-09-07T01:01:29;4.30;;;3.63;;
7001;SDS011;3541;53.230;10.518;2023-09-07T01:03:58;6.03;;;3.80;;
7001;SDS011;3541;53.230;10.518;2023-09-07T01:06:25;3.83;;;3.53;;
7001;SDS011;3541;53.230;10.518;2023-09-07T01:08:55;4.47;;;3.42;;
7001;SDS011;3541;53.230;10.518;2023-09-07T01:11:27;3.70;;;3.40;;
7001;SDS011;3541;53.230;10.518;2023-09-07T01:14:03;4.20;;;3.80;;
7001;SDS011;3541;53.230;10.518;2023-09-07T01:16:30;4.93;;;4.25;;
7001;SDS011;3541;53.230;10.518;2023-09-07T01:18:59;4.30;;;3.90;;
7001;SDS011;3541;53.230;10.518;2023-09-07T01:21:26;5.63;;;3.55;;
7001;SDS011;3541;53.230;10.518;2023-09-07T01:23:54;4.32;;;3.47;;
7001;SDS011;3541;53.230;10.518;2023-09-07T01:26:22;4.25;;;3.53;;
7001;SDS011;3541;53.230;10.518;2023-09-07T01:28:48;3.83;;;3.42;;
7001;SDS011;3541;53.230;10.518;2023-09-07T01:31:15;4.40;;;3.97;;
7001;SDS011;3541;53.230;10.518;2023-09-07T01:33:42;4.88;;;3.85;;
7001;SDS011;3541;53.230;10.518;2023-09-07T01:36:09;4.93;;;4.43;;
7001;SDS011;3541;53.230;10.518;2023-09-07T01:38:36;4.20;;;3.80;;
7001;SDS011;3541;53.230;10.518;2023-09-07T01:41:04;4.55;;;4.00;;
7001;SDS011;3541;53.230;10.518;2023-09-07T01:43:30;5.05;;;3.95;;
7001;SDS011;3541;53.230;10.518;2023-09-07T01:45:57;4.80;;;4.10;;
7001;SDS011;3541;53.230;10.518;2023-09-07T01:48:23;6.90;;;4.13;;
7001;SDS011;3541;53.230;10.518;2023-09-07T01:50:51;4.30;;;3.58;;
7001;SDS011;3541;53.230;10.518;2023-09-07T01:53:18;4.68;;;4.03;;
7001;SDS011;3541;53.230;10.518;2023-09-07T01:55:45;4.72;;;3.70;;
7001;SDS011;3541;53.230;10.518;2023-09-07T01:58:14;5.80;;;3.88;;
7001;SDS011;3541;53.230;10.518;2023-09-07T02:00:40;5.05;;;4.05;;
7001;SDS011;3541;53.230;10.518;2023-09-07T02:03:07;4.15;;;3.75;;
7001;SDS011;3541;53.230;10.518;2023-09-07T02:05:33;4.32;;;3.92;;
7001;SDS011;3541;53.230;10.518;2023-09-07T02:08:00;4.30;;;3.90;;
7001;SDS011;3541;53.230;10.518;2023-09-07T02:10:26;4.72;;;4.22;;
7001;SDS011;3541;53.230;10.518;2023-09-07T02:12:53;6.43;;;4.00;;
7001;SDS011;3541;53.230;10.518;2023-09-07T02:15:23;4.53;;;4.13;;
7001;SDS011;3541;53.230;10.518;2023-09-07T02:17:49;4.90;;;3.90;;
7001;SDS011;3541;53.230;10.518;2023-09-07T02:20:17;6.00;;;4.18;;
7001;SDS011;3541;53.230;10.518;2023-09-07T02:22:45;4.97;;;4.30;;
7001;SDS011;3541;53.230;10.518;2023-09-07T02:25:11;5.30;;;3.80;;
7001;SDS011;3541;53.230;10.518;2023-09-07T02:27:38;4.60;;;4.00;;
7001;SDS011;3541;53.230;10.518;2023-09-07T02:30:05;5.82;;;4.63;;
7001;SDS011;3541;53.230;10.518;2023-09-07T02:32:33;4.57;;;3.42;;
7001;SDS011;3541;53.230;10.518;2023-09-07T02:35:00;4.88;;;4.18;;
7001;SDS011;3541;53.230;10.518;2023-09-07T02:37:27;4.78;;;4.00;;
7001;SDS011;3541;53.230;10.518;2023-09-07T02:39:53;5.97;;;3.95;;
7001;SDS011;3541;53.230;10.518;2023-09-07T02:42:20;7.70;;;3.72;;
7001;SDS011;3541;53.230;10.518;2023-09-07T02:44:46;4.80;;;4.20;;
7001;SDS011;3541;53.230;10.518;2023-09-07T02:47:13;4.25;;;3.85;;
7001;SDS011;3541;53.230;10.518;2023-09-07T02:49:41;4.45;;;3.88;;
7001;SDS011;3541;53.230;10.518;2023-09-07T02:52:08;5.93;;;3.92;;
7001;SDS011;3541;53.230;10.518;2023-09-07T02:54:34;4.95;;;4.07;;
7001;SDS011;3541;53.230;10.518;2023-09-07T02:57:01;4.53;;;4.13;;
7001;SDS011;3541;53.230;10.518;2023-09-07T02:59:28;5.47;;;3.72;;
7001;SDS011;3541;53.230;10.518;2023-09-07T03:01:54;6.57;;;4.32;;
7001;SDS011;3541;53.230;10.518;2023-09-07T03:04:21;4.55;;;4.15;;
7001;SDS011;3541;53.230;10.518;2023-09-07T03:06:49;5.63;;;3.97;;
7001;SDS011;3541;53.230;10.518;2023-09-07T03:09:16;4.97;;;4.40;;
7001;SDS011;3541;53.230;10.518;2023-09-07T03:11:42;4.18;;;3.78;;
7001;SDS011;3541;53.230;10.518;2023-09-07T03:14:09;4.93;;;4.20;;
7001;SDS011;3541;53.230;10.518;2023-09-07T03:16:36;5.57;;;4.00;;
7001;SDS011;3541;53.230;10.518;2023-09-07T03:19:03;5.10;;;4.25;;
7001;SDS011;3541;53.230;10.518;2023-09-07T03:21:30;4.60;;;3.88;;
7001;SDS011;3541;53.230;10.518;2023-09-07T03:23:58;6.47;;;3.97;;
7001;SDS011;3541;53.230;10.518;2023-09-07T03:26:24;4.40;;;4.00;;
7001;SDS011;3541;53.230;10.518;2023-09-07T03:28:51;4.50;;;4.10;;
7001;SDS011;3541;53.230;10.518;2023-09-07T03:31:17;5.50;;;3.85;;
7001;SDS011;3541;53.230;10.518;2023-09-07T03:33:44;6.43;;;4.30;;
7001;SDS011;3541;53.230;10.518;2023-09-07T03:36:11;4.78;;;4.22;;
7001;SDS011;3541;53.230;10.518;2023-09-07T03:38:39;4.72;;;4.10;;
7001;SDS011;3541;53.230;10.518;2023-09-07T03:41:06;4.85;;;4.35;;
7001;SDS011;3541;53.230;10.518;2023-09-07T03:43:33;4.97;;;4.35;;
7001;SDS011;3541;53.230;10.518;2023-09-07T03:46:00;4.45;;;3.83;;
7001;SDS011;3541;53.230;10.518;2023-09-07T03:48:27;4.80;;;4.03;;
7001;SDS011;3541;53.230;10.518;2023-09-07T03:50:53;6.22;;;3.95;;
7001;SDS011;3541;53.230;10.518;2023-09-07T03:53:20;4.78;;;3.92;;
7001;SDS011;3541;53.230;10.518;2023-09-07T03:55:46;5.18;;;4.10;;
7001;SDS011;3541;53.230;10.518;2023-09-07T03:58:14;4.35;;;3.95;;
7001;SDS011;3541;53.230;10.518;2023-09-07T04:00:41;5.93;;;4.20;;
7001;SDS011;3541;53.230;10.518;2023-09-07T04:03:08;4.63;;;4.10;;
7001;SDS011;3541;53.230;10.518;2023-09-07T04:05:36;5.30;;;4.18;;
7001;SDS011;3541;53.230;10.518;2023-09-07T04:08:03;5.03;;;3.92;;
7001;SDS011;3541;53.230;10.518;2023-09-07T04:10:30;5.55;;;4.15;;
7001;SDS011;3541;53.230;10.518;2023-09-07T04:12:56;4.28;;;3.90;;
7001;SDS011;3541;53.230;10.518;2023-09-07T04:15:24;5.30;;;3.88;;
7001;SDS011;3541;53.230;10.518;2023-09-07T04:17:51;5.05;;;4.15;;
7001;SDS011;3541;53.230;10.518;2023-09-07T04:20:19;5.90;;;4.55;;
7001;SDS011;3541;53.230;10.518;2023-09-07T04:22:46;8.07;;;4.57;;
7001;SDS011;3541;53.230;10.518;2023-09-07T04:25:13;4.47;;;4.07;;
7001;SDS011;3541;53.230;10.518;2023-09-07T04:27:39;4.68;;;4.07;;
7001;SDS011;3541;53.230;10.518;2023-09-07T04:30:06;4.95;;;3.88;;
7001;SDS011;3541;53.230;10.518;2023-09-07T04:32:35;5.00;;;4.30;;
7001;SDS011;3541;53.230;10.518;2023-09-07T04:35:01;4.72;;;4.15;;
7001;SDS011;3541;53.230;10.518;2023-09-07T04:37:28;4.80;;;4.40;;
7001;SDS011;3541;53.230;10.518;2023-09-07T04:39:55;7.72;;;4.50;;
7001;SDS011;3541;53.230;10.518;2023-09-07T04:42:21;4.60;;;4.13;;
7001;SDS011;3541;53.230;10.518;2023-09-07T04:44:48;4.65;;;4.18;;
7001;SDS011;3541;53.230;10.518;2023-09-07T04:47:14;6.18;;;4.53;;
7001;SDS011;3541;53.230;10.518;2023-09-07T04:49:42;4.72;;;4.28;;
7001;SDS011;3541;53.230;10.518;2023-09-07T04:52:15;8.88;;;4.40;;
7001;SDS011;3541;53.230;10.518;2023-09-07T04:54:42;5.25;;;4.45;;
7001;SDS011;3541;53.230;10.518;2023-09-07T04:57:09;5.10;;;4.50;;
7001;SDS011;3541;53.230;10.518;2023-09-07T04:59:35;6.30;;;4.50;;
7001;SDS011;3541;53.230;10.518;2023-09-07T05:02:02;5.57;;;4.53;;
7001;SDS011;3541;53.230;10.518;2023-09-07T05:04:29;4.82;;;4.32;;
7001;SDS011;3541;53.230;10.518;2023-09-07T05:06:57;4.82;;;4.20;;
7001;SDS011;3541;53.230;10.518;2023-09-07T05:09:24;5.55;;;4.85;;
7001;SDS011;3541;53.230;10.518;2023-09-07T05:11:51;5.20;;;4.35;;
7001;SDS011;3541;53.230;10.518;2023-09-07T05:14:18;5.05;;;4.55;;
7001;SDS011;3541;53.230;10.518;2023-09-07T05:16:45;6.05;;;4.82;;
7001;SDS011;3541;53.230;10.518;2023-09-07T05:19:11;5.57;;;4.30;;
7001;SDS011;3541;53.230;10.518;2023-09-07T05:21:38;4.63;;;4.18;;
7001;SDS011;3541;53.230;10.518;2023-09-07T05:24:06;4.72;;;4.25;;
7001;SDS011;3541;53.230;10.518;2023-09-07T05:26:32;6.50;;;4.57;;
7001;SDS011;3541;53.230;10.518;2023-09-07T05:28:59;5.43;;;4.47;;
7001;SDS011;3541;53.230;10.518;2023-09-07T05:31:26;7.75;;;4.75;;
7001;SDS011;3541;53.230;10.518;2023-09-07T05:33:52;4.85;;;4.38;;
7001;SDS011;3541;53.230;10.518;2023-09-07T05:36:19;4.93;;;4.25;;
7001;SDS011;3541;53.230;10.518;2023-09-07T05:38:45;5.13;;;4.47;;
7001;SDS011;3541;53.230;10.518;2023-09-07T05:41:13;5.65;;;4.18;;
7001;SDS011;3541;53.230;10.518;2023-09-07T05:43:40;7.53;;;4.40;;
7001;SDS011;3541;53.230;10.518;2023-09-07T05:46:06;5.13;;;4.70;;
7001;SDS011;3541;53.230;10.518;2023-09-07T05:48:33;6.78;;;4.38;;
7001;SDS011;3541;53.230;10.518;2023-09-07T05:51:00;5.75;;;4.60;;
7001;SDS011;3541;53.230;10.518;2023-09-07T05:53:26;4.57;;;4.18;;
7001;SDS011;3541;53.230;10.518;2023-09-07T05:55:53;5.05;;;4.55;;
7001;SDS011;3541;53.230;10.518;2023-09-07T05:58:21;5.20;;;4.40;;
7001;SDS011;3541;53.230;10.518;2023-09-07T06:00:47;4.68;;;4.28;;
7001;SDS011;3541;53.230;10.518;2023-09-07T06:03:14;5.13;;;4.63;;
7001;SDS011;3541;53.230;10.518;2023-09-07T06:05:40;4.78;;;4.35;;
7001;SDS011;3541;53.230;10.518;2023-09-07T06:08:07;6.68;;;4.63;;
7001;SDS011;3541;53.230;10.518;2023-09-07T06:10:33;5.30;;;4.63;;
7001;SDS011;3541;53.230;10.518;2023-09-07T06:13:00;7.43;;;4.90;;
7001;SDS011;3541;53.230;10.518;2023-09-07T06:15:28;5.28;;;4.78;;
7001;SDS011;3541;53.230;10.518;2023-09-07T06:17:56;7.55;;;4.78;;
7001;SDS011;3541;53.230;10.518;2023-09-07T06:20:22;5.40;;;4.80;;
7001;SDS011;3541;53.230;10.518;2023-09-07T06:22:49;5.95;;;4.90;;
7001;SDS011;3541;53.230;10.518;2023-09-07T06:25:15;5.55;;;4.60;;
7001;SDS011;3541;53.230;10.518;2023-09-07T06:27:42;9.00;;;4.45;;
7001;SDS011;3541;53.230;10.518;2023-09-07T06:30:09;5.72;;;4.72;;
7001;SDS011;3541;53.230;10.518;2023-09-07T06:32:37;5.82;;;4.63;;
7001;SDS011;3541;53.230;10.518;2023-09-07T06:35:05;6.15;;;4.45;;
7001;SDS011;3541;53.230;10.518;2023-09-07T06:37:32;6.13;;;4.40;;
7001;SDS011;3541;53.230;10.518;2023-09-07T06:39:59;5.40;;;4.78;;
7001;SDS011;3541;53.230;10.518;2023-09-07T06:42:25;5.13;;;4.65;;
7001;SDS011;3541;53.230;10.518;2023-09-07T06:44:52;5.57;;;4.63;;
7001;SDS011;3541;53.230;10.518;2023-09-07T06:47:18;6.72;;;4.70;;
7001;SDS011;3541;53.230;10.518;2023-09-07T06:49:46;5.45;;;4.95;;
7001;SDS011;3541;53.230;10.518;2023-09-07T06:52:13;5.13;;;4.70;;
7001;SDS011;3541;53.230;10.518;2023-09-07T06:54:40;4.85;;;4.40;;
7001;SDS011;3541;53.230;10.518;2023-09-07T06:57:07;6.70;;;4.90;;
7001;SDS011;3541;53.230;10.518;2023-09-07T06:59:33;5.28;;;4.78;;
7001;SDS011;3541;53.230;10.518;2023-09-07T07:02:00;5.40;;;4.90;;
7001;SDS011;3541;53.230;10.518;2023-09-07T07:04:29;5.38;;;4.88;;
7001;SDS011;3541;53.230;10.518;2023-09-07T07:06:57;5.15;;;4.30;;
7001;SDS011;3541;53.230;10.518;2023-09-07T07:09:26;5.78;;;5.18;;
7001;SDS011;3541;53.230;10.518;2023-09-07T07:11:52;5.95;;;4.93;;
7001;SDS011;3541;53.230;10.518;2023-09-07T07:14:19;6.90;;;4.80;;
7001;SDS011;3541;53.230;10.518;2023-09-07T07:16:46;5.65;;;5.00;;
7001;SDS011;3541;53.230;10.518;2023-09-07T07:19:12;4.75;;;4.35;;
7001;SDS011;3541;53.230;10.518;2023-09-07T07:21:39;6.20;;;5.32;;
7001;SDS011;3541;53.230;10.518;2023-09-07T07:24:06;5.57;;;4.68;;
7001;SDS011;3541;53.230;10.518;2023-09-07T07:26:34;4.90;;;4.43;;
7001;SDS011;3541;53.230;10.518;2023-09-07T07:29:01;5.53;;;4.43;;
7001;SDS011;3541;53.230;10.518;2023-09-07T07:31:28;5.60;;;5.05;;
7001;SDS011;3541;53.230;10.518;2023-09-07T07:33:54;5.45;;;4.78;;
7001;SDS011;3541;53.230;10.518;2023-09-07T07:36:21;6.55;;;4.63;;
7001;SDS011;3541;53.230;10.518;2023-09-07T07:38:48;6.72;;;4.70;;
7001;SDS011;3541;53.230;10.518;2023-09-07T07:41:16;5.55;;;4.40;;
7001;SDS011;3541;53.230;10.518;2023-09-07T07:43:42;5.85;;;4.70;;
7001;SDS011;3541;53.230;10.518;2023-09-07T07:46:09;6.38;;;4.82;;
7001;SDS011;3541;53.230;10.518;2023-09-07T07:48:36;5.15;;;4.65;;
7001;SDS011;3541;53.230;10.518;2023-09-07T07:51:02;4.82;;;4.32;;
7001;SDS011;3541;53.230;10.518;2023-09-07T07:53:30;7.18;;;4.88;;
7001;SDS011;3541;53.230;10.518;2023-09-07T07:55:57;5.30;;;4.80;;
7001;SDS011;3541;53.230;10.518;2023-09-07T07:58:24;4.90;;;4.40;;
7001;SDS011;3541;53.230;10.518;2023-09-07T08:00:51;7.53;;;4.70;;
7001;SDS011;3541;53.230;10.518;2023-09-07T08:03:18;7.85;;;4.78;;
7001;SDS011;3541;53.230;10.518;2023-09-07T08:05:46;5.78;;;4.90;;
7001;SDS011;3541;53.230;10.518;2023-09-07T08:08:13;5.63;;;4.85;;
7001;SDS011;3541;53.230;10.518;2023-09-07T08:10:39;5.65;;;4.65;;
7001;SDS011;3541;53.230;10.518;2023-09-07T08:13:06;6.22;;;4.80;;
7001;SDS011;3541;53.230;10.518;2023-09-07T08:15:34;6.18;;;4.78;;
7001;SDS011;3541;53.230;10.518;2023-09-07T08:18:01;5.50;;;4.80;;
7001;SDS011;3541;53.230;10.518;2023-09-07T08:20:28;7.50;;;4.82;;
7001;SDS011;3541;53.230;10.518;2023-09-07T08:22:55;5.13;;;4.32;;
7001;SDS011;3541;53.230;10.518;2023-09-07T08:25:23;6.13;;;5.05;;
7001;SDS011;3541;53.230;10.518;2023-09-07T08:27:51;7.97;;;4.63;;
7001;SDS011;3541;53.230;10.518;2023-09-07T08:30:20;5.25;;;4.75;;
7001;SDS011;3541;53.230;10.518;2023-09-07T08:32:51;5.55;;;4.90;;
7001;SDS011;3541;53.230;10.518;2023-09-07T08:35:17;5.60;;;4.18;;
7001;SDS011;3541;53.230;10.518;2023-09-07T08:37:44;4.90;;;4.40;;
7001;SDS011;3541;53.230;10.518;2023-09-07T08:40:11;6.97;;;5.15;;
7001;SDS011;3541;53.230;10.518;2023-09-07T08:42:37;4.93;;;4.43;;
7001;SDS011;3541;53.230;10.518;2023-09-07T08:45:05;5.88;;;4.30;;
7001;SDS011;3541;53.230;10.518;2023-09-07T08:47:36;5.40;;;4.90;;
7001;SDS011;3541;53.230;10.518;2023-09-07T08:50:05;5.10;;;4.15;;
7001;SDS011;3541;53.230;10.518;2023-09-07T08:52:33;4.88;;;4.45;;
7001;SDS011;3541;53.230;10.518;2023-09-07T08:55:00;6.03;;;4.63;;
7001;SDS011;3541;53.230;10.518;2023-09-07T08:57:30;5.22;;;4.70;;
7001;SDS011;3541;53.230;10.518;2023-09-07T08:59:56;5.78;;;4.57;;
7001;SDS011;3541;53.230;10.518;2023-09-07T09:02:23;5.88;;;5.10;;
7001;SDS011;3541;53.230;10.518;2023-09-07T09:04:50;5.32;;;3.97;;
7001;SDS011;3541;53.230;10.518;2023-09-07T09:07:18;6.30;;;4.40;;
7001;SDS011;3541;53.230;10.518;2023-09-07T09:09:45;4.85;;;4.43;;
7001;SDS011;3541;53.230;10.518;2023-09-07T09:12:12;7.25;;;4.30;;
7001;SDS011;3541;53.230;10.518;2023-09-07T09:14:41;4.90;;;4.40;;
7001;SDS011;3541;53.230;10.518;2023-09-07T09:17:10;5.18;;;4.47;;
7001;SDS011;3541;53.230;10.518;2023-09-07T09:19:38;6.70;;;4.60;;
7001;SDS011;3541;53.230;10.518;2023-09-07T09:22:06;6.18;;;4.45;;
7001;SDS011;3541;53.230;10.518;2023-09-07T09:24:34;4.70;;;4.10;;
7001;SDS011;3541;53.230;10.518;2023-09-07T09:27:00;5.05;;;4.45;;
7001;SDS011;3541;53.230;10.518;2023-09-07T09:29:27;6.32;;;5.03;;
7001;SDS011;3541;53.230;10.518;2023-09-07T09:31:55;7.65;;;4.78;;
7001;SDS011;3541;53.230;10.518;2023-09-07T09:34:22;6.35;;;4.80;;
7001;SDS011;3541;53.230;10.518;2023-09-07T09:36:48;5.45;;;3.88;;
7001;SDS011;3541;53.230;10.518;2023-09-07T09:39:21;5.60;;;4.45;;
7001;SDS011;3541;53.230;10.518;2023-09-07T09:41:50;7.95;;;4.40;;
7001;SDS011;3541;53.230;10.518;2023-09-07T09:44:17;5.75;;;4.20;;
7001;SDS011;3541;53.230;10.518;2023-09-07T09:46:47;4.53;;;3.88;;
7001;SDS011;3541;53.230;10.518;2023-09-07T09:49:15;5.15;;;4.32;;
7001;SDS011;3541;53.230;10.518;2023-09-07T09:51:43;4.50;;;4.10;;
7001;SDS011;3541;53.230;10.518;2023-09-07T09:54:11;4.63;;;4.13;;
7001;SDS011;3541;53.230;10.518;2023-09-07T09:56:38;6.68;;;4.03;;
7001;SDS011;3541;53.230;10.518;2023-09-07T09:59:06;5.97;;;4.32;;
7001;SDS011;3541;53.230;10.518;2023-09-07T10:01:37;4.57;;;3.80;;
7001;SDS011;3541;53.230;10.518;2023-09-07T10:04:06;4.32;;;3.92;;
7001;SDS011;3541;53.230;10.518;2023-09-07T10:06:35;6.40;;;4.07;;
7001;SDS011;3541;53.230;10.518;2023-09-07T10:09:03;5.75;;;4.03;;
7001;SDS011;3541;53.230;10.518;2023-09-07T10:11:32;6.45;;;4.30;;
7001;SDS011;3541;53.230;10.518;2023-09-07T10:14:00;4.30;;;3.90;;
7001;SDS011;3541;53.230;10.518;2023-09-07T10:16:30;6.00;;;4.40;;
7001;SDS011;3541;53.230;10.518;2023-09-07T10:19:13;5.03;;;3.90;;
7001;SDS011;3541;53.230;10.518;2023-09-07T10:21:41;5.22;;;3.92;;
7001;SDS011;3541;53.230;10.518;2023-09-07T10:24:08;5.20;;;3.78;;
7001;SDS011;3541;53.230;10.518;2023-09-07T10:26:35;5.55;;;3.88;;
7001;SDS011;3541;53.230;10.518;2023-09-07T10:29:02;5.05;;;4.25;;
7001;SDS011;3541;53.230;10.518;2023-09-07T10:31:31;4.90;;;4.05;;
7001;SDS011;3541;53.230;10.518;2023-09-07T10:34:07;4.70;;;4.20;;
7001;SDS011;3541;53.230;10.518;2023-09-07T10:36:35;4.78;;;3.72;;
7001;SDS011;3541;53.230;10.518;2023-09-07T10:39:03;10.68;;;4.20;;
7001;SDS011;3541;53.230;10.518;2023-09-07T10:41:39;7.25;;;4.38;;
7001;SDS011;3541;53.230;10.518;2023-09-07T10:44:14;5.10;;;3.92;;
7001;SDS011;3541;53.230;10.518;2023-09-07T10:46:41;5.35;;;4.28;;
7001;SDS011;3541;53.230;10.518;2023-09-07T10:49:08;4.30;;;3.90;;
7001;SDS011;3541;53.230;10.518;2023-09-07T10:51:40;5.82;;;4.20;;
7001;SDS011;3541;53.230;10.518;2023-09-07T10:54:14;5.93;;;4.05;;
7001;SDS011;3541;53.230;10.518;2023-09-07T10:56:42;6.13;;;4.22;;
7001;SDS011;3541;53.230;10.518;2023-09-07T10:59:10;5.78;;;4.75;;
7001;SDS011;3541;53.230;10.518;2023-09-07T11:01:38;6.72;;;3.72;;
7001;SDS011;3541;53.230;10.518;2023-09-07T11:04:05;4.75;;;4.28;;
7001;SDS011;3541;53.230;10.518;2023-09-07T11:06:33;5.85;;;4.32;;
7001;SDS011;3541;53.230;10.518;2023-09-07T11:09:01;4.22;;;3.83;;
7001;SDS011;3541;53.230;10.518;2023-09-07T11:11:30;5.25;;;3.90;;
7001;SDS011;3541;53.230;10.518;2023-09-07T11:13:59;5.55;;;3.70;;
7001;SDS011;3541;53.230;10.518;2023-09-07T11:16:25;4.95;;;3.90;;
7001;SDS011;3541;53.230;10.518;2023-09-07T11:18:53;5.13;;;3.88;;
7001;SDS011;3541;53.230;10.518;2023-09-07T11:21:20;6.57;;;3.65;;
7001;SDS011;3541;53.230;10.518;2023-09-07T11:23:47;6.85;;;3.58;;
7001;SDS011;3541;53.230;10.518;2023-09-07T11:26:14;4.38;;;3.95;;
7001;SDS011;3541;53.230;10.518;2023-09-07T11:28:42;6.85;;;3.80;;
7001;SDS011;3541;53.230;10.518;2023-09-07T11:31:11;5.68;;;3.80;;
7001;SDS011;3541;53.230;10.518;2023-09-07T11:33:38;4.60;;;4.07;;
7001;SDS011;3541;53.230;10.518;2023-09-07T11:36:08;4.57;;;4.15;;
7001;SDS011;3541;53.230;10.518;2023-09-07T11:38:35;5.07;;;3.92;;
7001;SDS011;3541;53.230;10.518;2023-09-07T11:41:02;5.10;;;4.28;;
7001;SDS011;3541;53.230;10.518;2023-09-07T11:43:29;4.25;;;3.85;;
7001;SDS011;3541;53.230;10.518;2023-09-07T11:45:56;5.45;;;4.28;;
7001;SDS011;3541;53.230;10.518;2023-09-07T11:48:22;4.65;;;4.25;;
7001;SDS011;3541;53.230;10.518;2023-09-07T11:50:49;6.43;;;4.28;;
7001;SDS011;3541;53.230;10.518;2023-09-07T11:53:17;7.43;;;4.03;;
7001;SDS011;3541;53.230;10.518;2023-09-07T11:55:43;5.43;;;4.30;;
7001;SDS011;3541;53.230;10.518;2023-09-07T11:58:10;4.32;;;3.92;;
7001;SDS011;3541;53.230;10.518;2023-09-07T12:00:37;4.40;;;4.00;;
7001;SDS011;3541;53.230;10.518;2023-09-07T12:03:04;4.43;;;4.00;;
7001;SDS011;3541;53.230;10.518;2023-09-07T12:05:31;5.15;;;3.70;;
7001;SDS011;3541;53.230;10.518;2023-09-07T12:07:58;4.30;;;3.65;;
7001;SDS011;3541;53.230;10.518;2023-09-07T12:10:26;4.20;;;3.80;;
7001;SDS011;3541;53.230;10.518;2023-09-07T12:12:53;5.75;;;4.10;;
7001;SDS011;3541;53.230;10.518;2023-09-07T12:15:19;4.00;;;3.60;;
7001;SDS011;3541;53.230;10.518;2023-09-07T12:17:46;6.80;;;4.10;;
7001;SDS011;3541;53.230;10.518;2023-09-07T12:20:14;4.32;;;3.83;;
7001;SDS011;3541;53.230;10.518;2023-09-07T12:22:41;3.83;;;3.38;;
7001;SDS011;3541;53.230;10.518;2023-09-07T12:25:08;4.22;;;3.40;;
7001;SDS011;3541;53.230;10.518;2023-09-07T12:27:37;3.92;;;3.40;;
7001;SDS011;3541;53.230;10.518;2023-09-07T12:30:04;5.75;;;3.72;;
7001;SDS011;3541;53.230;10.518;2023-09-07T12:32:36;5.07;;;3.95;;
7001;SDS011;3541;53.230;10.518;2023-09-07T12:35:03;6.45;;;3.83;;
7001;SDS011;3541;53.230;10.518;2023-09-07T12:37:33;4.93;;;3.45;;
7001;SDS011;3541;53.230;10.518;2023-09-07T12:40:00;3.97;;;3.35;;
7001;SDS011;3541;53.230;10.518;2023-09-07T12:42:27;4.85;;;3.78;;
7001;SDS011;3541;53.230;10.518;2023-09-07T12:44:55;4.65;;;3.63;;
7001;SDS011;3541;53.230;10.518;2023-09-07T12:47:21;4.50;;;4.07;;
7001;SDS011;3541;53.230;10.518;2023-09-07T12:49:48;5.78;;;3.65;;
7001;SDS011;3541;53.230;10.518;2023-09-07T12:52:15;3.97;;;3.58;;
7001;SDS011;3541;53.230;10.518;2023-09-07T12:54:41;3.50;;;3.20;;
7001;SDS011;3541;53.230;10.518;2023-09-07T12:57:08;3.90;;;3.50;;
7001;SDS011;3541;53.230;10.518;2023-09-07T12:59:34;7.03;;;3.72;;
7001;SDS011;3541;53.230;10.518;2023-09-07T13:02:02;4.38;;;3.70;;
7001;SDS011;3541;53.230;10.518;2023-09-07T13:04:29;4.00;;;3.60;;
7001;SDS011;3541;53.230;10.518;2023-09-07T13:06:56;4.30;;;3.90;;
7001;SDS011;3541;53.230;10.518;2023-09-07T13:09:22;4.97;;;3.80;;
7001;SDS011;3541;53.230;10.518;2023-09-07T13:11:49;4.20;;;3.65;;
7001;SDS011;3541;53.230;10.518;2023-09-07T13:14:15;4.80;;;3.53;;
7001;SDS011;3541;53.230;10.518;2023-09-07T13:16:42;4.05;;;3.20;;
7001;SDS011;3541;53.230;10.518;2023-09-07T13:19:10;3.70;;;3.40;;
7001;SDS011;3541;53.230;10.518;2023-09-07T13:21:37;4.22;;;3.65;;
7001;SDS011;3541;53.230;10.518;2023-09-07T13:24:04;5.65;;;3.58;;
7001;SDS011;3541;53.230;10.518;2023-09-07T13:26:31;4.28;;;3.30;;
7001;SDS011;3541;53.230;10.518;2023-09-07T13:28:58;4.82;;;3.50;;
7001;SDS011;3541;53.230;10.518;2023-09-07T13:31:25;3.72;;;3.42;;
7001;SDS011;3541;53.230;10.518;2023-09-07T13:33:51;3.90;;;3.28;;
7001;SDS011;3541;53.230;10.518;2023-09-07T13:36:19;4.90;;;4.03;;
7001;SDS011;3541;53.230;10.518;2023-09-07T13:38:46;4.45;;;3.83;;
7001;SDS011;3541;53.230;10.518;2023-09-07T13:41:12;4.05;;;3.40;;
7001;SDS011;3541;53.230;10.518;2023-09-07T13:43:39;4.65;;;3.20;;
7001;SDS011;3541;53.230;10.518;2023-09-07T13:46:05;4.63;;;3.88;;
7001;SDS011;3541;53.230;10.518;2023-09-07T13:48:32;3.55;;;3.25;;
7001;SDS011;3541;53.230;10.518;2023-09-07T13:50:58;4.07;;;3.67;;
7001;SDS011;3541;53.230;10.518;2023-09-07T13:53:26;5.07;;;3.72;;
7001;SDS011;3541;53.230;10.518;2023-09-07T13:55:53;3.80;;;3.40;;
7001;SDS011;3541;53.230;10.518;2023-09-07T13:58:20;5.25;;;3.47;;
7001;SDS011;3541;53.230;10.518;2023-09-07T14:00:46;4.55;;;3.47;;
7001;SDS011;3541;53.230;10.518;2023-09-07T14:03:13;5.47;;;3.28;;
7001;SDS011;3541;53.230;10.518;2023-09-07T14:05:39;5.00;;;3.60;;
7001;SDS011;3541;53.230;10.518;2023-09-07T14:08:06;4.47;;;3.35;;
7001;SDS011;3541;53.230;10.518;2023-09-07T14:10:34;4.07;;;3.40;;
7001;SDS011;3541;53.230;10.518;2023-09-07T14:13:00;4.05;;;3.65;;
7001;SDS011;3541;53.230;10.518;2023-09-07T14:15:27;3.75;;;3.45;;
7001;SDS011;3541;53.230;10.518;2023-09-07T14:17:53;4.07;;;3.67;;
7001;SDS011;3541;53.230;10.518;2023-09-07T14:20:20;3.70;;;3.30;;
7001;SDS011;3541;53.230;10.518;2023-09-07T14:22:46;5.95;;;3.65;;
7001;SDS011;3541;53.230;10.518;2023-09-07T14:25:13;4.05;;;3.65;;
7001;SDS011;3541;53.230;10.518;2023-09-07T14:27:42;4.85;;;3.63;;
7001;SDS011;3541;53.230;10.518;2023-09-07T14:30:09;3.47;;;3.17;;
7001;SDS011;3541;53.230;10.518;2023-09-07T14:32:37;6.82;;;4.10;;
7001;SDS011;3541;53.230;10.518;2023-09-07T14:35:05;5.68;;;3.72;;
7001;SDS011;3541;53.230;10.518;2023-09-07T14:37:32;4.95;;;3.35;;
7001;SDS011;3541;53.230;10.518;2023-09-07T14:39:58;5.43;;;3.38;;
7001;SDS011;3541;53.230;10.518;2023-09-07T14:42:25;4.35;;;3.60;;
7001;SDS011;3541;53.230;10.518;2023-09-07T14:44:52;7.35;;;3.28;;
7001;SDS011;3541;53.230;10.518;2023-09-07T14:47:19;4.65;;;3.75;;
7001;SDS011;3541;53.230;10.518;2023-09-07T14:49:50;3.88;;;3.50;;
7001;SDS011;3541;53.230;10.518;2023-09-07T14:52:16;4.68;;;3.60;;
7001;SDS011;3541;53.230;10.518;2023-09-07T14:54:43;5.68;;;3.33;;
7001;SDS011;3541;53.230;10.518;2023-09-07T14:57:10;5.32;;;3.10;;
7001;SDS011;3541;53.230;10.518;2023-09-07T14:59:37;3.33;;;2.97;;